createdAt,value
2024-02-02T00:00:09.016Z,3.17
2024-02-02T00:02:39.031Z,2.75
2024-02-02T00:05:06.608Z,2.45
2024-02-02T00:07:36.429Z,2.42
2024-02-02T00:10:03.588Z,2.60
2024-02-02T00:12:30.491Z,3.00
2024-02-02T00:14:57.379Z,1.77
2024-02-02T00:17:24.366Z,2.45
2024-02-02T00:19:51.337Z,3.63
2024-02-02T00:22:21.977Z,2.78
2024-02-02T00:24:49.041Z,2.67
2024-02-02T00:27:19.894Z,2.85
2024-02-02T00:29:47.646Z,3.00
2024-02-02T00:32:15.014Z,1.65
2024-02-02T00:34:44.944Z,1.92
2024-02-02T00:37:14.339Z,3.08
2024-02-02T00:39:41.111Z,1.77
2024-02-02T00:42:08.013Z,3.05
2024-02-02T00:44:37.277Z,2.53
2024-02-02T00:47:04.203Z,2.60
2024-02-02T00:49:31.050Z,2.47
2024-02-02T00:51:57.925Z,3.97
2024-02-02T00:54:24.883Z,2.42
2024-02-02T00:56:51.876Z,2.47
2024-02-02T00:59:18.647Z,2.63
2024-02-02T01:01:45.422Z,2.22
2024-02-02T01:04:12.325Z,2.08
2024-02-02T01:06:42.484Z,2.38
2024-02-02T01:09:11.955Z,1.83
2024-02-02T01:11:38.826Z,1.65
2024-02-02T01:14:07.704Z,3.53
2024-02-02T01:16:34.545Z,2.25
2024-02-02T01:19:01.475Z,2.92
2024-02-02T01:21:29.184Z,2.53
2024-02-02T01:23:56.472Z,2.20
2024-02-02T01:26:23.262Z,2.08
2024-02-02T01:28:50.097Z,1.75
2024-02-02T01:31:16.877Z,2.30
2024-02-02T01:33:43.687Z,2.60
2024-02-02T01:36:10.666Z,2.03
2024-02-02T01:38:37.612Z,2.42
2024-02-02T01:41:06.089Z,2.63
2024-02-02T01:43:33.381Z,2.50
2024-02-02T01:46:00.321Z,2.42
2024-02-02T01:48:27.328Z,2.65
2024-02-02T01:50:54.885Z,2.50
2024-02-02T01:53:22.284Z,2.08
2024-02-02T01:55:49.134Z,2.78
2024-02-02T01:58:16.095Z,2.75
2024-02-02T02:00:45.253Z,1.90
2024-02-02T02:03:12.207Z,3.10
2024-02-02T02:05:40.997Z,2.28
2024-02-02T02:08:08.079Z,1.17
2024-02-02T02:10:35.226Z,1.65
2024-02-02T02:13:03.410Z,1.73
2024-02-02T02:15:33.370Z,2.20
2024-02-02T02:18:00.252Z,3.55
2024-02-02T02:20:29.115Z,1.35
2024-02-02T02:22:56.098Z,1.80
2024-02-02T02:25:25.193Z,2.40
2024-02-02T02:27:52.056Z,2.33
2024-02-02T02:30:19.900Z,2.28
2024-02-02T02:32:46.781Z,1.55
2024-02-02T02:35:13.583Z,2.25
2024-02-02T02:37:40.565Z,1.73
2024-02-02T02:40:09.140Z,1.90
2024-02-02T02:42:38.483Z,2.97
2024-02-02T02:45:05.749Z,2.47
2024-02-02T02:47:34.673Z,2.42
2024-02-02T02:50:01.445Z,2.35
2024-02-02T02:52:29.287Z,2.17
2024-02-02T02:54:56.056Z,2.95
2024-02-02T02:57:22.873Z,2.67
2024-02-02T02:59:53.386Z,2.33
2024-02-02T03:02:20.220Z,1.75
2024-02-02T03:04:47.031Z,0.88
2024-02-02T03:07:13.930Z,2.90
2024-02-02T03:09:41.806Z,2.83
2024-02-02T03:12:11.670Z,1.98
2024-02-02T03:14:38.517Z,2.50
2024-02-02T03:17:05.401Z,2.15
2024-02-02T03:19:32.286Z,1.80
2024-02-02T03:21:59.120Z,1.25
2024-02-02T03:24:26.102Z,1.60
2024-02-02T03:26:52.827Z,1.95
2024-02-02T03:29:20.762Z,2.13
2024-02-02T03:31:49.050Z,2.50
2024-02-02T03:34:15.893Z,1.92
2024-02-02T03:36:42.814Z,2.88
2024-02-02T03:39:10.089Z,1.80
2024-02-02T03:41:36.932Z,2.15
2024-02-02T03:44:03.774Z,2.63
2024-02-02T03:46:30.541Z,2.13
2024-02-02T03:48:59.109Z,1.65
2024-02-02T03:51:26.340Z,1.38
2024-02-02T03:53:53.149Z,1.88
2024-02-02T03:56:19.876Z,1.88
2024-02-02T03:58:46.793Z,2.05
2024-02-02T04:01:13.586Z,2.25
2024-02-02T04:03:40.804Z,2.17
2024-02-02T04:06:07.808Z,1.65
2024-02-02T04:08:36.996Z,2.35
2024-02-02T04:11:03.818Z,1.65
2024-02-02T04:13:30.750Z,2.17
2024-02-02T04:15:57.556Z,1.77
2024-02-02T04:18:26.981Z,2.10
2024-02-02T04:20:54.560Z,1.83
2024-02-02T04:23:21.621Z,1.83
2024-02-02T04:25:48.617Z,2.00
2024-02-02T04:28:15.373Z,1.83
2024-02-02T04:30:42.112Z,1.65
2024-02-02T04:33:09.015Z,1.48
2024-02-02T04:35:39.043Z,2.53
2024-02-02T04:38:06.486Z,2.10
2024-02-02T04:40:33.806Z,1.02
2024-02-02T04:43:03.293Z,1.58
2024-02-02T04:45:30.255Z,2.08
2024-02-02T04:47:57.125Z,2.28
2024-02-02T04:50:26.952Z,1.98
2024-02-02T04:52:53.746Z,2.50
2024-02-02T04:55:20.383Z,1.40
2024-02-02T04:57:47.175Z,3.13
2024-02-02T05:00:14.875Z,2.83
2024-02-02T05:02:41.684Z,2.53
2024-02-02T05:05:08.623Z,2.95
2024-02-02T05:07:38.209Z,2.10
2024-02-02T05:10:08.258Z,1.98
2024-02-02T05:12:35.637Z,1.52
2024-02-02T05:15:03.111Z,1.95
2024-02-02T05:17:30.583Z,2.85
2024-02-02T05:19:57.397Z,2.42
2024-02-02T05:22:24.098Z,1.77
2024-02-02T05:24:50.828Z,1.27
2024-02-02T05:27:17.839Z,1.70
2024-02-02T05:29:45.665Z,2.08
2024-02-02T05:32:12.749Z,2.53
2024-02-02T05:34:39.598Z,1.75
2024-02-02T05:37:06.430Z,2.78
2024-02-02T05:39:33.349Z,2.58
2024-02-02T05:42:00.778Z,1.63
2024-02-02T05:44:27.616Z,1.08
2024-02-02T05:46:54.299Z,2.53
2024-02-02T05:49:21.264Z,1.95
2024-02-02T05:51:48.814Z,1.65
2024-02-02T05:54:15.625Z,2.15
2024-02-02T05:56:42.432Z,2.13
2024-02-02T05:59:09.131Z,2.40
2024-02-02T06:01:35.956Z,1.55
2024-02-02T06:04:02.894Z,1.70
2024-02-02T06:06:30.501Z,2.10
2024-02-02T06:09:00.361Z,2.05
2024-02-02T06:11:27.699Z,1.85
2024-02-02T06:13:57.396Z,2.00
2024-02-02T06:16:25.673Z,2.22
2024-02-02T06:18:55.724Z,1.17
2024-02-02T06:21:22.754Z,1.50
2024-02-02T06:23:49.613Z,2.20
2024-02-02T06:26:16.396Z,1.42
2024-02-02T06:28:43.215Z,1.48
2024-02-02T06:31:12.396Z,1.35
2024-02-02T06:33:39.173Z,2.03
2024-02-02T06:36:09.056Z,1.95
2024-02-02T06:38:35.909Z,1.25
2024-02-02T06:41:07.274Z,2.63
2024-02-02T06:43:34.140Z,1.83
2024-02-02T06:46:00.903Z,2.08
2024-02-02T06:48:27.889Z,1.77
2024-02-02T06:50:56.931Z,1.70
2024-02-02T06:53:23.620Z,2.17
2024-02-02T06:55:50.918Z,2.10
2024-02-02T06:58:43.995Z,2.13
2024-02-02T07:01:14.618Z,1.20
2024-02-02T07:03:41.448Z,2.45
2024-02-02T07:06:09.612Z,1.80
2024-02-02T07:08:36.767Z,1.88
2024-02-02T07:11:34.384Z,2.25
2024-02-02T07:14:01.269Z,1.67
2024-02-02T07:16:31.704Z,1.75
2024-02-02T07:18:58.794Z,2.55
2024-02-02T07:21:33.417Z,2.17
2024-02-02T07:24:00.804Z,2.10
2024-02-02T07:26:35.512Z,2.38
2024-02-02T07:29:06.609Z,1.65
2024-02-02T07:31:39.785Z,2.28
2024-02-02T07:34:21.714Z,2.42
2024-02-02T07:36:48.485Z,2.25
2024-02-02T07:39:31.711Z,2.90
2024-02-02T07:41:59.529Z,2.35
2024-02-02T07:44:26.515Z,2.00
2024-02-02T07:46:56.411Z,2.80
2024-02-02T07:49:25.885Z,2.97
2024-02-02T07:51:52.655Z,2.20
2024-02-02T07:54:19.441Z,2.42
2024-02-02T07:56:46.348Z,2.70
2024-02-02T07:59:13.038Z,2.67
2024-02-02T08:01:39.810Z,2.00
2024-02-02T08:04:06.830Z,3.33
2024-02-02T08:06:34.138Z,2.90
2024-02-02T08:09:01.018Z,2.45
2024-02-02T08:11:31.165Z,2.15
2024-02-02T08:13:57.921Z,2.72
2024-02-02T08:16:24.714Z,3.03
2024-02-02T08:18:56.349Z,2.28
2024-02-02T08:21:23.590Z,1.38
2024-02-02T08:23:50.288Z,1.73
2024-02-02T08:26:17.169Z,2.63
2024-02-02T08:28:49.096Z,2.90
2024-02-02T08:31:22.416Z,2.30
2024-02-02T08:33:49.606Z,2.58
2024-02-02T08:36:16.815Z,2.60
2024-02-02T08:38:43.796Z,2.85
2024-02-02T08:41:11.587Z,1.77
2024-02-02T08:43:38.804Z,2.08
2024-02-02T08:46:10.865Z,2.88
2024-02-02T08:48:47.909Z,2.47
2024-02-02T08:51:24.902Z,1.98
2024-02-02T08:53:59.194Z,2.80
2024-02-02T08:56:25.963Z,7.53
2024-02-02T08:58:53.342Z,4.80
2024-02-02T09:01:43.517Z,5.38
2024-02-02T09:04:48.254Z,6.93
2024-02-02T09:07:17.652Z,5.10
2024-02-02T09:09:45.291Z,5.35
2024-02-02T09:12:12.258Z,6.20
2024-02-02T09:14:39.369Z,5.78
2024-02-02T09:17:07.585Z,4.20
2024-02-02T09:19:37.495Z,5.85
2024-02-02T09:22:10.491Z,5.10
2024-02-02T09:24:52.208Z,4.82
2024-02-02T09:27:39.449Z,5.32
2024-02-02T09:30:27.845Z,5.18
2024-02-02T09:32:54.788Z,5.82
2024-02-02T09:35:54.502Z,3.83
2024-02-02T09:38:21.352Z,5.10
2024-02-02T09:41:03.262Z,4.75
2024-02-02T09:43:54.923Z,5.60
2024-02-02T09:46:42.917Z,4.70
2024-02-02T09:49:09.738Z,4.07
2024-02-02T09:51:43.571Z,5.38
2024-02-02T09:54:13.288Z,3.70
2024-02-02T09:56:57.497Z,5.25
2024-02-02T09:59:41.957Z,3.83
2024-02-02T10:02:08.687Z,3.67
2024-02-02T10:05:08.987Z,4.50
2024-02-02T10:08:06.866Z,5.13
2024-02-02T10:10:41.906Z,5.25
2024-02-02T10:13:29.693Z,4.28
2024-02-02T10:16:11.652Z,3.78
2024-02-02T10:18:44.783Z,3.88
2024-02-02T10:21:35.616Z,3.42
2024-02-02T10:24:21.033Z,3.90
2024-02-02T10:26:54.363Z,2.70
2024-02-02T10:29:39.466Z,3.45
2024-02-02T10:35:13.223Z,2.85
2024-02-02T10:37:40.125Z,3.33
2024-02-02T10:40:08.117Z,4.95
2024-02-02T10:42:53.548Z,2.65
2024-02-02T10:45:29.007Z,3.33
2024-02-02T10:48:16.777Z,3.97
2024-02-02T10:50:56.078Z,3.60
2024-02-02T10:53:44.840Z,3.90
2024-02-02T10:56:43.206Z,2.92
2024-02-02T10:59:37.616Z,2.92
2024-02-02T11:02:29.827Z,3.25
2024-02-02T11:05:14.396Z,2.33
2024-02-02T11:08:09.965Z,2.92
2024-02-02T11:10:53.597Z,2.97
2024-02-02T11:13:53.932Z,2.92
2024-02-02T11:16:58.390Z,2.90
2024-02-02T11:19:34.151Z,2.95
2024-02-02T11:22:11.237Z,3.63
2024-02-02T11:25:07.842Z,2.42
2024-02-02T11:27:42.268Z,2.03
2024-02-02T11:30:26.052Z,2.75
2024-02-02T11:33:19.897Z,2.60
2024-02-02T11:35:58.846Z,2.25
2024-02-02T11:41:04.060Z,2.80
2024-02-02T11:43:32.197Z,2.08
2024-02-02T11:46:02.220Z,3.00
2024-02-02T11:48:36.849Z,2.08
2024-02-02T11:51:06.196Z,2.17
2024-02-02T11:53:49.539Z,2.83
2024-02-02T11:56:30.927Z,2.35
2024-02-02T11:59:09.940Z,2.10
2024-02-02T12:01:45.699Z,3.10
2024-02-02T12:04:44.529Z,2.20
2024-02-02T12:07:29.506Z,2.50
2024-02-02T12:12:36.566Z,2.08
2024-02-02T12:15:04.088Z,1.63
2024-02-02T12:17:31.127Z,2.22
2024-02-02T12:20:01.490Z,2.25
2024-02-02T12:22:30.464Z,1.38
2024-02-02T12:24:57.436Z,1.63
2024-02-02T12:27:24.280Z,1.10
2024-02-02T12:29:51.103Z,1.85
2024-02-02T12:32:18.126Z,1.63
2024-02-02T12:34:46.619Z,1.73
2024-02-02T12:37:13.757Z,1.65
2024-02-02T12:39:40.770Z,1.75
2024-02-02T12:42:08.052Z,1.73
2024-02-02T12:44:34.980Z,2.25
2024-02-02T12:47:01.735Z,1.85
2024-02-02T12:49:30.950Z,2.95
2024-02-02T12:51:58.416Z,2.22
2024-02-02T12:54:25.611Z,3.17
2024-02-02T12:56:52.765Z,2.40
2024-02-02T12:59:20.030Z,1.92
2024-02-02T13:01:49.234Z,3.08
2024-02-02T13:04:18.206Z,2.65
2024-02-02T13:06:46.758Z,2.90
2024-02-02T13:09:20.966Z,2.05
2024-02-02T13:11:48.173Z,2.20
2024-02-02T13:14:30.497Z,1.83
2024-02-02T13:17:11.225Z,1.58
2024-02-02T13:19:47.118Z,2.75
2024-02-02T13:22:28.041Z,2.28
2024-02-02T13:24:58.864Z,2.05
2024-02-02T13:27:31.981Z,2.40
2024-02-02T13:30:03.270Z,2.08
2024-02-02T13:32:35.019Z,1.55
2024-02-02T13:35:02.465Z,1.80
2024-02-02T13:37:38.306Z,1.90
2024-02-02T13:40:11.251Z,1.20
2024-02-02T13:42:38.725Z,2.03
2024-02-02T13:45:12.479Z,2.38
2024-02-02T13:47:40.043Z,1.80
2024-02-02T13:50:13.620Z,1.50
2024-02-02T13:52:40.845Z,1.40
2024-02-02T13:55:09.272Z,1.30
2024-02-02T13:57:38.441Z,1.42
2024-02-02T14:00:07.570Z,1.70
2024-02-02T14:02:34.382Z,1.50
2024-02-02T14:05:03.446Z,1.35
2024-02-02T14:07:30.263Z,1.90
2024-02-02T14:10:07.728Z,1.45
2024-02-02T14:12:38.615Z,1.20
2024-02-02T14:15:06.854Z,1.75
2024-02-02T14:17:34.399Z,1.60
2024-02-02T14:20:05.827Z,1.60
2024-02-02T14:22:33.964Z,1.70
2024-02-02T14:25:00.792Z,1.38
2024-02-02T14:27:41.338Z,1.27
2024-02-02T14:30:09.717Z,1.35
2024-02-02T14:32:37.581Z,1.35
2024-02-02T14:35:05.698Z,1.05
2024-02-02T14:37:35.149Z,1.25
2024-02-02T14:40:04.586Z,1.45
2024-02-02T14:42:31.381Z,1.90
2024-02-02T14:45:00.328Z,1.33
2024-02-02T14:47:27.927Z,1.23
2024-02-02T14:49:55.149Z,0.88
2024-02-02T14:52:22.520Z,1.55
2024-02-02T14:54:49.319Z,2.22
2024-02-02T14:57:20.290Z,1.85
2024-02-02T14:59:52.547Z,1.75
2024-02-02T15:02:20.273Z,1.40
2024-02-02T15:04:47.163Z,1.35
2024-02-02T15:07:14.737Z,1.80
2024-02-02T15:09:47.510Z,1.80
2024-02-02T15:12:14.371Z,1.67
2024-02-02T15:14:41.090Z,1.60
2024-02-02T15:17:08.525Z,1.75
2024-02-02T15:19:35.528Z,2.60
2024-02-02T15:22:02.445Z,2.60
2024-02-02T15:24:29.365Z,1.90
2024-02-02T15:26:56.389Z,1.63
2024-02-02T15:29:24.456Z,2.17
2024-02-02T15:31:51.295Z,1.52
2024-02-02T15:34:18.050Z,2.08
2024-02-02T15:36:45.254Z,1.98
2024-02-02T15:39:24.016Z,2.30
2024-02-02T15:41:57.559Z,2.30
2024-02-02T15:44:25.504Z,1.90
2024-02-02T15:46:52.310Z,1.85
2024-02-02T15:49:19.490Z,1.50
2024-02-02T15:51:46.521Z,1.85
2024-02-02T15:54:16.486Z,2.38
2024-02-02T15:56:43.372Z,1.75
2024-02-02T15:59:11.549Z,2.40
2024-02-02T16:01:45.688Z,1.95
2024-02-02T16:04:12.568Z,1.33
2024-02-02T16:06:42.082Z,2.15
2024-02-02T16:09:09.703Z,2.08
2024-02-02T16:11:37.045Z,2.35
2024-02-02T16:14:03.779Z,1.73
2024-02-02T16:16:33.301Z,1.80
2024-02-02T16:19:00.284Z,1.77
2024-02-02T16:21:27.215Z,1.83
2024-02-02T16:23:54.017Z,1.65
2024-02-02T16:26:21.030Z,1.95
2024-02-02T16:28:47.786Z,2.60
2024-02-02T16:31:16.777Z,1.80
2024-02-02T16:33:44.282Z,2.20
2024-02-02T16:36:11.115Z,1.40
2024-02-02T16:38:37.960Z,2.38
2024-02-02T16:41:04.874Z,2.42
2024-02-02T16:43:31.855Z,2.35
2024-02-02T16:45:58.693Z,2.35
2024-02-02T16:48:25.631Z,1.58
2024-02-02T16:50:56.328Z,1.48
2024-02-02T16:53:23.734Z,1.83
2024-02-02T16:55:50.556Z,1.42
2024-02-02T16:58:17.312Z,1.70
2024-02-02T17:00:44.383Z,1.95
2024-02-02T17:03:14.020Z,1.83
2024-02-02T17:05:43.195Z,1.58
2024-02-02T17:08:09.918Z,1.25
2024-02-02T17:10:39.140Z,2.65
2024-02-02T17:13:05.861Z,2.20
2024-02-02T17:15:34.768Z,1.60
2024-02-02T17:18:01.679Z,2.03
2024-02-02T17:20:28.634Z,1.63
2024-02-02T17:22:55.610Z,2.40
2024-02-02T17:25:22.461Z,2.03
2024-02-02T17:27:49.240Z,2.75
2024-02-02T17:30:18.056Z,1.85
2024-02-02T17:32:45.048Z,3.53
2024-02-02T17:35:12.183Z,3.15
2024-02-02T17:37:43.824Z,1.90
2024-02-02T17:40:14.069Z,3.00
2024-02-02T17:42:44.907Z,2.20
2024-02-02T17:45:11.854Z,2.83
2024-02-02T17:47:40.971Z,2.08
2024-02-02T17:50:09.035Z,2.65
2024-02-02T17:52:36.022Z,2.30
2024-02-02T17:55:03.068Z,2.33
2024-02-02T17:57:31.943Z,2.17
2024-02-02T18:00:01.985Z,2.08
2024-02-02T18:02:29.065Z,1.35
2024-02-02T18:04:55.771Z,1.35
2024-02-02T18:07:30.380Z,2.30
2024-02-02T18:10:03.010Z,1.83
2024-02-02T18:12:30.596Z,2.13
2024-02-02T18:14:57.386Z,2.47
2024-02-02T18:17:24.485Z,2.13
2024-02-02T18:19:51.212Z,2.22
2024-02-02T18:22:17.917Z,2.50
2024-02-02T18:24:45.110Z,1.55
2024-02-02T18:27:14.254Z,1.95
2024-02-02T18:29:41.277Z,2.63
2024-02-02T18:32:10.614Z,1.95
2024-02-02T18:34:38.248Z,2.60
2024-02-02T18:37:05.062Z,3.08
2024-02-02T18:39:31.888Z,2.28
2024-02-02T18:42:05.440Z,2.97
2024-02-02T18:44:32.511Z,2.35
2024-02-02T18:46:59.364Z,3.00
2024-02-02T18:49:26.195Z,2.83
2024-02-02T18:51:53.089Z,2.45
2024-02-02T18:54:19.981Z,2.05
2024-02-02T18:56:46.840Z,2.00
2024-02-02T18:59:13.713Z,2.97
2024-02-02T19:01:40.463Z,2.42
2024-02-02T19:04:08.470Z,3.13
2024-02-02T19:06:39.681Z,2.70
2024-02-02T19:09:10.964Z,2.78
2024-02-02T19:11:37.878Z,2.42
2024-02-02T19:14:06.663Z,2.15
2024-02-02T19:16:33.462Z,2.83
2024-02-02T19:19:00.391Z,2.60
2024-02-02T19:21:30.260Z,3.10
2024-02-02T19:23:58.562Z,3.08
2024-02-02T19:26:25.367Z,2.75
2024-02-02T19:28:53.201Z,4.18
2024-02-02T19:31:28.809Z,3.20
2024-02-02T19:33:56.389Z,2.45
2024-02-02T19:36:28.308Z,2.30
2024-02-02T19:38:56.418Z,3.75
2024-02-02T19:41:24.534Z,3.13
2024-02-02T19:43:52.363Z,3.17
2024-02-02T19:46:45.873Z,3.72
2024-02-02T19:49:12.906Z,3.40
2024-02-02T19:51:39.988Z,3.38
2024-02-02T19:54:07.030Z,3.35
2024-02-02T19:56:33.787Z,3.03
2024-02-02T19:59:00.528Z,4.03
2024-02-02T20:01:28.785Z,4.30
2024-02-02T20:03:55.844Z,4.88
2024-02-02T20:06:25.109Z,4.20
2024-02-02T20:08:52.317Z,2.92
2024-02-02T20:11:20.920Z,4.32
2024-02-02T20:13:48.622Z,5.28
2024-02-02T20:16:20.250Z,4.15
2024-02-02T20:18:48.407Z,6.00
2024-02-02T20:21:16.713Z,4.60
2024-02-02T20:23:46.587Z,4.35
2024-02-02T20:26:21.386Z,5.05
2024-02-02T20:28:53.450Z,5.13
2024-02-02T20:31:20.523Z,5.07
2024-02-02T20:33:48.687Z,4.30
2024-02-02T20:36:19.916Z,3.90
2024-02-02T20:38:46.999Z,5.22
2024-02-02T20:41:15.081Z,5.93
2024-02-02T20:43:42.220Z,3.85
2024-02-02T20:46:15.394Z,4.43
2024-02-02T20:48:42.410Z,4.45
2024-02-02T20:51:15.097Z,4.10
2024-02-02T20:53:46.738Z,4.35
2024-02-02T20:56:13.665Z,3.72
2024-02-02T20:58:40.473Z,3.60
2024-02-02T21:01:07.479Z,2.78
2024-02-02T21:03:35.111Z,3.95
2024-02-02T21:06:02.414Z,3.25
2024-02-02T21:08:29.428Z,3.55
2024-02-02T21:10:56.529Z,3.08
2024-02-02T21:13:23.639Z,3.05
2024-02-02T21:15:50.630Z,3.15
2024-02-02T21:18:17.926Z,4.32
2024-02-02T21:20:51.069Z,2.78
2024-02-02T21:23:19.355Z,3.03
2024-02-02T21:25:47.039Z,3.58
2024-02-02T21:28:14.793Z,2.85
2024-02-02T21:30:44.463Z,2.72
2024-02-02T21:33:12.181Z,3.20
2024-02-02T21:35:39.229Z,2.70
2024-02-02T21:38:06.074Z,1.42
2024-02-02T21:40:32.932Z,1.90
2024-02-02T21:42:59.709Z,2.03
2024-02-02T21:45:26.575Z,1.80
2024-02-02T21:47:56.073Z,2.33
2024-02-02T21:50:23.211Z,1.80
2024-02-02T21:52:50.144Z,3.30
2024-02-02T21:55:17.012Z,2.58
2024-02-02T21:57:43.937Z,2.15
2024-02-02T22:00:14.160Z,2.85
2024-02-02T22:02:41.463Z,2.08
2024-02-02T22:05:08.425Z,1.95
2024-02-02T22:07:38.501Z,2.00
2024-02-02T22:10:06.045Z,2.58
2024-02-02T22:12:32.827Z,2.35
2024-02-02T22:14:59.743Z,2.03
2024-02-02T22:17:26.966Z,1.73
2024-02-02T22:19:53.808Z,2.38
2024-02-02T22:22:20.738Z,1.50
2024-02-02T22:24:47.672Z,2.20
2024-02-02T22:27:16.530Z,1.50
2024-02-02T22:29:44.824Z,1.75
2024-02-02T22:32:19.378Z,2.28
2024-02-02T22:34:47.383Z,1.63
2024-02-02T22:37:16.975Z,2.10
2024-02-02T22:39:43.792Z,2.72
2024-02-02T22:42:10.806Z,1.52
2024-02-02T22:44:37.656Z,2.22
2024-02-02T22:47:04.637Z,2.22
2024-02-02T22:49:33.336Z,1.77
2024-02-02T22:52:00.535Z,1.58
2024-02-02T22:54:27.413Z,1.73
2024-02-02T22:56:56.457Z,1.23
2024-02-02T22:59:23.293Z,2.00
2024-02-02T23:01:50.247Z,1.67
2024-02-02T23:04:17.302Z,1.90
2024-02-02T23:06:44.112Z,1.90
2024-02-02T23:09:13.064Z,1.13
2024-02-02T23:11:39.978Z,1.40
2024-02-02T23:14:08.170Z,1.80
2024-02-02T23:16:34.984Z,2.03
2024-02-02T23:19:01.782Z,1.33
2024-02-02T23:21:29.384Z,1.52
2024-02-02T23:23:56.057Z,1.48
2024-02-02T23:26:23.047Z,1.27
2024-02-02T23:28:49.749Z,1.38
2024-02-02T23:31:16.491Z,1.17
2024-02-02T23:33:43.677Z,1.40
2024-02-02T23:36:10.688Z,1.52
2024-02-02T23:38:37.465Z,2.05
2024-02-02T23:41:04.335Z,1.75
2024-02-02T23:43:31.136Z,1.27
2024-02-02T23:45:57.925Z,1.55
2024-02-02T23:48:25.277Z,1.38
2024-02-02T23:50:52.182Z,1.25
2024-02-02T23:53:19.059Z,1.35
2024-02-02T23:55:48.030Z,1.42
2024-02-02T23:58:14.802Z,1.52
